createdAt,value
2022-11-10T00:02:35.453Z,13.11
2022-11-10T00:05:21.176Z,13.29
2022-11-10T00:08:07.634Z,13.36
2022-11-10T00:11:01.311Z,12.92
2022-11-10T00:14:10.964Z,13.28
2022-11-10T00:17:04.392Z,13.37
2022-11-10T00:19:50.546Z,13.10
2022-11-10T00:22:36.958Z,13.19
2022-11-10T00:25:23.573Z,13.33
2022-11-10T00:28:09.248Z,13.59
2022-11-10T00:30:55.066Z,12.82
2022-11-10T00:33:42.099Z,12.45
2022-11-10T00:36:27.784Z,13.12
2022-11-10T00:39:13.516Z,13.17
2022-11-10T00:41:59.169Z,13.03
2022-11-10T00:44:44.907Z,13.19
2022-11-10T00:47:31.528Z,13.35
2022-11-10T00:50:17.526Z,13.61
2022-11-10T00:53:03.357Z,13.70
2022-11-10T00:55:49.143Z,13.64
2022-11-10T00:58:34.928Z,13.51
2022-11-10T01:01:21.630Z,13.49
2022-11-10T01:04:07.990Z,13.65
2022-11-10T01:06:53.838Z,13.53
2022-11-10T01:09:39.943Z,13.61
2022-11-10T01:12:29.652Z,13.75
2022-11-10T01:15:15.712Z,13.87
2022-11-10T01:18:01.335Z,13.84
2022-11-10T01:20:51.357Z,13.72
2022-11-10T01:23:37.438Z,13.75
2022-11-10T01:26:23.360Z,13.77
2022-11-10T01:29:09.157Z,13.90
2022-11-10T01:31:54.887Z,13.98
2022-11-10T01:34:40.921Z,13.98
2022-11-10T01:37:27.315Z,13.73
2022-11-10T01:40:13.263Z,13.47
2022-11-10T01:42:59.281Z,13.42
2022-11-10T01:45:55.515Z,12.98
2022-11-10T01:48:47.876Z,13.32
2022-11-10T01:51:44.758Z,13.41
2022-11-10T01:54:32.505Z,13.38
2022-11-10T01:57:18.128Z,13.56
2022-11-10T02:00:04.472Z,13.02
2022-11-10T02:02:54.478Z,13.28
2022-11-10T02:05:40.152Z,13.28
2022-11-10T02:08:26.055Z,13.38
2022-11-10T02:11:12.051Z,13.38
2022-11-10T02:13:57.999Z,13.31
2022-11-10T02:16:43.651Z,13.24
2022-11-10T02:19:29.665Z,12.78
2022-11-10T02:22:15.369Z,12.89
2022-11-10T02:25:01.308Z,13.16
2022-11-10T02:27:47.023Z,12.92
2022-11-10T02:30:33.147Z,12.93
2022-11-10T02:33:19.041Z,12.99
2022-11-10T02:36:05.098Z,12.80
2022-11-10T02:38:50.671Z,12.87
2022-11-10T02:41:36.215Z,12.87
2022-11-10T02:44:21.952Z,12.39
2022-11-10T02:47:07.617Z,12.71
2022-11-10T02:49:53.558Z,12.62
2022-11-10T02:52:39.344Z,12.83
2022-11-10T02:55:25.025Z,12.84
2022-11-10T02:58:10.870Z,13.05
2022-11-10T03:00:56.639Z,12.50
2022-11-10T03:03:42.797Z,12.98
2022-11-10T03:06:28.565Z,12.64
2022-11-10T03:09:14.074Z,12.75
2022-11-10T03:11:59.854Z,12.86
2022-11-10T03:14:45.537Z,12.69
2022-11-10T03:17:31.328Z,12.90
2022-11-10T03:20:17.079Z,12.78
2022-11-10T03:23:04.109Z,12.70
2022-11-10T03:25:50.583Z,12.65
2022-11-10T03:28:36.530Z,12.52
2022-11-10T03:31:22.231Z,12.79
2022-11-10T03:34:08.082Z,12.23
2022-11-10T03:36:53.856Z,11.82
2022-11-10T03:39:39.861Z,12.44
2022-11-10T03:42:25.771Z,12.75
2022-11-10T03:45:12.092Z,11.92
2022-11-10T03:47:57.569Z,11.97
2022-11-10T03:50:43.605Z,11.89
2022-11-10T03:53:29.298Z,12.16
2022-11-10T03:56:14.914Z,12.42
2022-11-10T03:59:00.616Z,11.90
2022-11-10T04:01:46.273Z,11.82
2022-11-10T04:04:50.831Z,12.21
2022-11-10T04:07:55.896Z,11.75
2022-11-10T04:10:41.982Z,12.33
2022-11-10T04:13:46.685Z,11.91
2022-11-10T04:16:32.719Z,11.82
2022-11-10T04:19:18.456Z,11.74
2022-11-10T04:22:04.147Z,12.32
2022-11-10T04:24:49.971Z,11.97
2022-11-10T04:27:35.636Z,11.57
2022-11-10T04:30:21.364Z,11.31
2022-11-10T04:33:07.016Z,11.29
2022-11-10T04:35:52.578Z,11.50
2022-11-10T04:38:38.700Z,11.60
2022-11-10T04:41:25.374Z,11.19
2022-11-10T04:44:10.930Z,11.38
2022-11-10T04:46:56.936Z,12.38
2022-11-10T04:49:42.552Z,12.40
2022-11-10T04:52:28.317Z,11.94
2022-11-10T04:55:13.893Z,12.32
2022-11-10T04:57:59.471Z,11.99
2022-11-10T05:00:45.476Z,12.11
2022-11-10T05:03:31.488Z,12.41
2022-11-10T05:06:18.344Z,12.28
2022-11-10T05:09:04.128Z,11.43
2022-11-10T05:11:49.712Z,12.13
2022-11-10T05:14:35.687Z,11.86
2022-11-10T05:17:22.349Z,11.98
2022-11-10T05:20:08.182Z,12.34
2022-11-10T05:23:12.192Z,12.63
2022-11-10T05:25:58.213Z,12.35
2022-11-10T05:28:45.167Z,12.42
2022-11-10T05:31:31.326Z,12.40
2022-11-10T05:34:16.925Z,12.01
2022-11-10T05:37:02.697Z,12.43
2022-11-10T05:39:48.513Z,11.84
2022-11-10T05:42:34.223Z,12.14
2022-11-10T05:45:23.880Z,11.77
2022-11-10T05:48:09.863Z,11.82
2022-11-10T05:50:55.463Z,12.03
2022-11-10T05:53:41.589Z,11.70
2022-11-10T05:56:27.218Z,12.11
2022-11-10T05:59:12.863Z,12.36
2022-11-10T06:01:58.483Z,12.15
2022-11-10T06:04:44.460Z,12.16
2022-11-10T06:07:30.470Z,11.94
2022-11-10T06:10:16.447Z,12.13
2022-11-10T06:13:02.654Z,11.76
2022-11-10T06:15:50.565Z,12.09
2022-11-10T06:18:36.788Z,11.89
2022-11-10T06:21:22.431Z,11.75
2022-11-10T06:24:08.363Z,12.03
2022-11-10T06:26:53.996Z,12.25
2022-11-10T06:29:39.603Z,11.97
2022-11-10T06:32:25.333Z,12.63
2022-11-10T06:35:11.223Z,12.42
2022-11-10T06:38:04.563Z,12.10
2022-11-10T06:40:50.580Z,12.06
2022-11-10T06:43:36.508Z,12.38
2022-11-10T06:46:22.273Z,12.75
2022-11-10T06:49:08.212Z,12.67
2022-11-10T06:51:53.819Z,12.96
2022-11-10T06:54:39.570Z,13.09
2022-11-10T06:57:25.612Z,12.83
2022-11-10T07:00:11.954Z,13.05
2022-11-10T07:03:05.438Z,13.28
2022-11-10T07:05:51.376Z,12.82
2022-11-10T07:08:37.589Z,12.92
2022-11-10T07:11:23.487Z,13.02
2022-11-10T07:14:09.573Z,12.44
2022-11-10T07:16:55.419Z,12.81
2022-11-10T07:19:41.281Z,12.90
2022-11-10T07:22:26.881Z,12.06
2022-11-10T07:25:12.522Z,12.75
2022-11-10T07:28:00.094Z,11.80
2022-11-10T07:30:46.217Z,12.27
2022-11-10T07:33:31.844Z,12.01
2022-11-10T07:36:17.646Z,12.47
2022-11-10T07:39:03.533Z,12.74
2022-11-10T07:41:52.488Z,12.41
2022-11-10T07:44:38.867Z,12.30
2022-11-10T07:47:24.833Z,12.27
2022-11-10T07:50:10.690Z,12.05
2022-11-10T07:53:16.360Z,12.51
2022-11-10T07:56:02.255Z,12.11
2022-11-10T07:58:48.351Z,11.82
2022-11-10T08:01:35.552Z,12.12
2022-11-10T08:04:22.719Z,12.43
2022-11-10T08:07:09.237Z,12.51
2022-11-10T08:09:55.381Z,12.46
2022-11-10T08:12:41.281Z,12.64
2022-11-10T08:15:27.492Z,13.02
2022-11-10T08:18:16.878Z,13.16
2022-11-10T08:21:03.336Z,12.52
2022-11-10T08:23:49.459Z,13.13
2022-11-10T08:26:35.424Z,13.08
2022-11-10T08:29:21.253Z,12.89
2022-11-10T08:32:06.835Z,12.49
2022-11-10T08:34:52.586Z,12.73
2022-11-10T08:37:38.369Z,13.21
2022-11-10T08:40:25.025Z,12.76
2022-11-10T08:43:11.759Z,13.29
2022-11-10T08:45:57.899Z,12.37
2022-11-10T08:48:43.630Z,12.46
2022-11-10T08:51:30.952Z,12.45
2022-11-10T08:54:19.846Z,13.22
2022-11-10T08:57:06.266Z,13.23
2022-11-10T08:59:52.104Z,13.62
2022-11-10T09:02:37.932Z,12.73
2022-11-10T09:05:23.616Z,13.00
2022-11-10T09:08:14.379Z,12.51
2022-11-10T09:11:02.452Z,13.24
2022-11-10T09:13:48.208Z,12.90
2022-11-10T09:16:34.021Z,12.61
2022-11-10T09:19:20.381Z,13.51
2022-11-10T09:22:06.078Z,13.03
2022-11-10T09:24:51.988Z,12.92
2022-11-10T09:27:38.263Z,12.84
2022-11-10T09:30:23.884Z,12.92
2022-11-10T09:33:09.998Z,12.81
2022-11-10T09:36:02.789Z,13.21
2022-11-10T09:38:48.666Z,13.32
2022-11-10T09:41:38.161Z,13.20
2022-11-10T09:44:26.527Z,13.20
2022-11-10T09:47:56.892Z,13.29
2022-11-10T09:50:48.762Z,13.42
2022-11-10T09:53:41.722Z,13.25
2022-11-10T09:56:35.117Z,13.50
2022-11-10T09:59:26.221Z,13.66
2022-11-10T10:02:50.453Z,13.88
2022-11-10T10:06:02.547Z,13.58
2022-11-10T10:08:51.695Z,13.84
2022-11-10T10:11:49.166Z,12.84
2022-11-10T10:14:42.458Z,13.41
2022-11-10T10:17:38.314Z,12.37
2022-11-10T10:20:45.157Z,13.16
2022-11-10T10:24:07.733Z,12.87
2022-11-10T10:26:50.956Z,12.85
2022-11-10T10:29:43.258Z,12.96
2022-11-10T10:32:29.224Z,13.81
2022-11-10T10:35:16.344Z,13.81
2022-11-10T10:38:03.748Z,13.08
2022-11-10T10:40:51.020Z,13.60
2022-11-10T10:43:36.853Z,13.98
2022-11-10T10:46:28.401Z,13.01
2022-11-10T10:49:31.498Z,13.52
2022-11-10T10:52:18.216Z,13.57
2022-11-10T10:55:08.048Z,12.98
2022-11-10T10:58:00.904Z,13.15
2022-11-10T11:00:51.783Z,13.69
2022-11-10T11:03:44.474Z,13.74
2022-11-10T11:06:33.819Z,13.51
2022-11-10T11:09:24.276Z,13.62
2022-11-10T11:12:13.053Z,14.31
2022-11-10T11:15:26.611Z,14.05
2022-11-10T11:18:17.245Z,13.82
2022-11-10T11:21:33.620Z,13.60
2022-11-10T11:24:25.271Z,13.90
2022-11-10T11:27:36.278Z,13.83
2022-11-10T11:30:23.527Z,13.82
2022-11-10T11:33:15.034Z,13.26
2022-11-10T11:36:30.428Z,13.68
2022-11-10T11:39:28.750Z,13.71
2022-11-10T11:42:28.951Z,13.89
2022-11-10T11:45:21.938Z,13.61
2022-11-10T11:48:42.449Z,13.13
2022-11-10T11:51:50.097Z,12.98
2022-11-10T11:55:10.976Z,13.55
2022-11-10T11:58:20.079Z,13.25
2022-11-10T12:01:24.500Z,13.54
2022-11-10T12:04:43.018Z,13.18
2022-11-10T12:07:45.133Z,13.63
2022-11-10T12:10:47.821Z,13.74
2022-11-10T12:13:53.480Z,13.51
2022-11-10T12:16:39.341Z,13.27
2022-11-10T12:19:37.317Z,13.00
2022-11-10T12:22:39.652Z,13.26
2022-11-10T12:25:32.602Z,12.94
2022-11-10T12:28:24.105Z,12.85
2022-11-10T12:31:14.525Z,13.42
2022-11-10T12:34:06.084Z,13.03
2022-11-10T12:36:51.752Z,12.79
2022-11-10T12:39:53.892Z,13.15
2022-11-10T12:42:39.642Z,13.50
2022-11-10T12:45:35.405Z,13.12
2022-11-10T12:48:21.714Z,13.33
2022-11-10T12:51:21.803Z,12.92
2022-11-10T12:54:16.323Z,13.42
2022-11-10T12:57:13.720Z,13.20
2022-11-10T13:00:05.073Z,13.02
2022-11-10T13:02:50.897Z,12.99
2022-11-10T13:05:42.011Z,12.95
2022-11-10T13:08:32.848Z,12.80
2022-11-10T13:11:18.256Z,12.31
2022-11-10T13:14:04.448Z,12.95
2022-11-10T13:16:52.336Z,12.64
2022-11-10T13:19:39.129Z,12.57
2022-11-10T13:22:31.757Z,12.38
2022-11-10T13:25:36.067Z,12.71
2022-11-10T13:28:47.144Z,12.42
2022-11-10T13:31:33.039Z,12.59
2022-11-10T13:34:18.899Z,12.35
2022-11-10T13:37:29.412Z,12.63
2022-11-10T13:40:24.289Z,12.59
2022-11-10T13:43:13.073Z,12.62
2022-11-10T13:46:00.022Z,12.69
2022-11-10T13:49:01.584Z,12.92
2022-11-10T13:51:56.219Z,12.52
2022-11-10T13:55:20.260Z,12.69
2022-11-10T13:58:09.361Z,12.32
2022-11-10T14:01:17.047Z,12.68
2022-11-10T14:04:03.048Z,12.58
2022-11-10T14:06:50.590Z,12.48
2022-11-10T14:09:41.314Z,12.38
2022-11-10T14:12:46.445Z,12.66
2022-11-10T14:15:39.378Z,12.92
2022-11-10T14:18:27.093Z,12.54
2022-11-10T14:21:42.487Z,12.11
2022-11-10T14:24:39.270Z,12.63
2022-11-10T14:27:29.759Z,12.95
2022-11-10T14:30:21.698Z,12.71
2022-11-10T14:33:11.117Z,12.29
2022-11-10T14:36:01.319Z,12.51
2022-11-10T14:38:47.135Z,12.61
2022-11-10T14:41:33.147Z,12.59
2022-11-10T14:44:24.226Z,12.74
2022-11-10T14:47:31.078Z,12.44
2022-11-10T14:50:19.509Z,12.28
2022-11-10T14:53:15.888Z,12.55
2022-11-10T14:56:02.431Z,13.17
2022-11-10T14:58:48.384Z,12.38
2022-11-10T15:01:36.816Z,12.43
2022-11-10T15:04:33.276Z,12.81
2022-11-10T15:07:18.902Z,13.04
2022-11-10T15:10:05.661Z,12.94
2022-11-10T15:13:06.414Z,12.56
2022-11-10T15:15:53.629Z,11.95
2022-11-10T15:18:39.595Z,12.65
2022-11-10T15:21:30.370Z,12.98
2022-11-10T15:24:16.055Z,13.12
2022-11-10T15:27:01.872Z,13.03
2022-11-10T15:29:48.006Z,13.53
2022-11-10T15:32:35.246Z,13.10
2022-11-10T15:35:23.709Z,12.51
2022-11-10T15:38:09.242Z,12.23
2022-11-10T15:41:12.761Z,12.43
2022-11-10T15:44:22.234Z,12.90
2022-11-10T15:47:10.267Z,13.11
2022-11-10T15:49:56.124Z,13.53
2022-11-10T15:52:42.113Z,13.02
2022-11-10T15:55:29.681Z,12.86
2022-11-10T15:58:17.129Z,13.35
2022-11-10T16:01:03.405Z,13.25
2022-11-10T16:03:49.327Z,13.28
2022-11-10T16:06:35.440Z,13.20
2022-11-10T16:09:21.376Z,13.31
2022-11-10T16:12:13.217Z,12.81
2022-11-10T16:14:59.687Z,12.79
2022-11-10T16:17:45.645Z,12.36
2022-11-10T16:20:31.192Z,13.01
2022-11-10T16:23:17.117Z,12.50
2022-11-10T16:26:03.354Z,12.93
2022-11-10T16:28:49.089Z,12.62
2022-11-10T16:31:35.090Z,12.78
2022-11-10T16:34:20.771Z,13.01
2022-11-10T16:37:06.543Z,12.11
2022-11-10T16:39:52.172Z,12.13
2022-11-10T16:42:37.848Z,11.97
2022-11-10T16:45:24.417Z,12.12
2022-11-10T16:48:13.566Z,12.40
2022-11-10T16:50:59.500Z,12.42
2022-11-10T16:53:45.677Z,12.20
2022-11-10T16:56:31.497Z,12.19
2022-11-10T16:59:17.312Z,12.64
2022-11-10T17:02:03.037Z,12.01
2022-11-10T17:04:48.749Z,12.35
2022-11-10T17:07:34.911Z,12.32
2022-11-10T17:10:20.652Z,12.41
2022-11-10T17:13:08.652Z,12.35
2022-11-10T17:15:57.683Z,12.43
2022-11-10T17:18:43.470Z,12.71
2022-11-10T17:21:32.826Z,11.72
2022-11-10T17:24:18.927Z,12.04
2022-11-10T17:27:04.777Z,12.36
2022-11-10T17:29:50.768Z,11.99
2022-11-10T17:33:03.184Z,11.61
2022-11-10T17:35:42.353Z,12.04
2022-11-10T17:38:29.004Z,12.05
2022-11-10T17:41:19.023Z,12.24
2022-11-10T17:44:04.827Z,11.87
2022-11-10T17:46:50.802Z,12.23
2022-11-10T17:49:36.584Z,12.18
2022-11-10T17:52:22.553Z,11.74
2022-11-10T17:55:23.524Z,11.61
2022-11-10T17:58:10.087Z,11.69
2022-11-10T18:00:56.087Z,11.39
2022-11-10T18:03:41.758Z,12.13
2022-11-10T18:06:27.535Z,11.56
2022-11-10T18:09:13.304Z,11.47
2022-11-10T18:11:58.931Z,11.27
2022-11-10T18:14:44.637Z,11.50
2022-11-10T18:17:30.309Z,11.77
2022-11-10T18:20:16.508Z,11.74
2022-11-10T18:23:02.370Z,11.62
2022-11-10T18:25:48.065Z,11.74
2022-11-10T18:28:34.598Z,10.84
2022-11-10T18:31:20.325Z,10.85
2022-11-10T18:34:06.062Z,11.20
2022-11-10T18:36:52.328Z,10.45
2022-11-10T18:39:38.114Z,10.69
2022-11-10T18:42:24.589Z,10.79
2022-11-10T18:45:11.146Z,11.12
2022-11-10T18:48:01.141Z,11.04
2022-11-10T18:50:46.928Z,10.83
2022-11-10T18:53:37.910Z,10.51
2022-11-10T18:56:25.090Z,11.02
2022-11-10T18:59:10.978Z,10.99
2022-11-10T19:01:56.819Z,11.19
2022-11-10T19:04:42.784Z,10.96
2022-11-10T19:07:29.220Z,10.85
2022-11-10T19:10:15.320Z,11.13
2022-11-10T19:13:01.206Z,11.24
2022-11-10T19:15:46.873Z,11.28
2022-11-10T19:18:32.537Z,11.11
2022-11-10T19:21:19.949Z,11.27
2022-11-10T19:24:06.063Z,11.40
2022-11-10T19:26:52.021Z,11.14
2022-11-10T19:29:37.807Z,11.44
2022-11-10T19:32:25.005Z,11.27
2022-11-10T19:35:13.300Z,11.44
2022-11-10T19:37:58.918Z,11.30
2022-11-10T19:40:45.218Z,11.05
2022-11-10T19:43:31.085Z,11.14
2022-11-10T19:46:18.192Z,10.74
2022-11-10T19:49:04.269Z,10.63
2022-11-10T19:51:50.509Z,10.84
2022-11-10T19:54:36.445Z,10.83
2022-11-10T19:57:23.172Z,11.06
2022-11-10T20:00:12.346Z,10.55
2022-11-10T20:02:58.208Z,10.86
2022-11-10T20:05:46.221Z,10.72
2022-11-10T20:08:32.281Z,10.98
2022-11-10T20:11:22.046Z,10.50
2022-11-10T20:14:07.542Z,10.35
2022-11-10T20:16:53.465Z,10.84
2022-11-10T20:19:41.129Z,10.70
2022-11-10T20:22:27.528Z,10.13
2022-11-10T20:25:13.492Z,10.38
2022-11-10T20:28:01.295Z,10.09
2022-11-10T20:30:46.989Z,9.78
2022-11-10T20:33:32.820Z,10.36
2022-11-10T20:36:26.217Z,10.71
2022-11-10T20:39:11.986Z,10.07
2022-11-10T20:41:57.650Z,9.99
2022-11-10T20:44:43.392Z,10.33
2022-11-10T20:47:29.392Z,10.89
2022-11-10T20:50:19.208Z,10.83
2022-11-10T20:53:07.621Z,10.45
2022-11-10T20:55:57.945Z,10.39
2022-11-10T20:58:45.064Z,10.80
2022-11-10T21:01:30.866Z,10.78
2022-11-10T21:04:17.011Z,10.38
2022-11-10T21:07:02.723Z,9.95
2022-11-10T21:09:48.732Z,9.75
2022-11-10T21:12:49.978Z,10.23
2022-11-10T21:15:38.125Z,9.88
2022-11-10T21:18:28.226Z,9.81
2022-11-10T21:21:34.354Z,9.50
2022-11-10T21:24:20.873Z,9.47
2022-11-10T21:27:06.755Z,10.07
2022-11-10T21:29:52.871Z,9.55
2022-11-10T21:32:38.916Z,9.98
2022-11-10T21:35:25.500Z,9.81
2022-11-10T21:38:12.169Z,9.92
2022-11-10T21:40:57.868Z,10.03
2022-11-10T21:43:43.416Z,9.79
2022-11-10T21:46:29.269Z,9.51
2022-11-10T21:49:15.119Z,9.62
2022-11-10T21:52:00.911Z,10.05
2022-11-10T21:54:46.670Z,9.85
2022-11-10T21:57:32.356Z,9.77
2022-11-10T22:00:18.275Z,9.65
2022-11-10T22:03:03.963Z,9.75
2022-11-10T22:05:49.514Z,9.98
2022-11-10T22:08:35.806Z,10.13
2022-11-10T22:11:40.444Z,9.90
2022-11-10T22:14:45.181Z,9.67
2022-11-10T22:17:50.654Z,9.79
2022-11-10T22:20:36.572Z,9.90
2022-11-10T22:23:42.189Z,9.63
2022-11-10T22:26:28.032Z,9.04
2022-11-10T22:29:13.800Z,9.48
2022-11-10T22:32:00.592Z,9.26
2022-11-10T22:34:46.489Z,9.38
2022-11-10T22:37:33.158Z,9.35
2022-11-10T22:40:38.126Z,9.38
2022-11-10T22:43:42.928Z,9.39
2022-11-10T22:46:28.889Z,9.33
2022-11-10T22:49:15.531Z,9.51
2022-11-10T22:52:01.379Z,9.38
2022-11-10T22:54:47.042Z,9.20
2022-11-10T22:57:32.787Z,9.60
2022-11-10T23:00:18.482Z,9.47
2022-11-10T23:03:04.291Z,9.69
2022-11-10T23:05:55.933Z,10.08
2022-11-10T23:08:43.361Z,9.82
2022-11-10T23:11:30.580Z,9.91
2022-11-10T23:14:16.629Z,9.94
2022-11-10T23:17:02.540Z,10.01
2022-11-10T23:19:48.288Z,9.75
2022-11-10T23:22:34.259Z,9.88
2022-11-10T23:25:20.088Z,9.89
2022-11-10T23:28:05.746Z,9.75
2022-11-10T23:30:51.519Z,9.84
2022-11-10T23:33:37.743Z,9.42
2022-11-10T23:36:23.822Z,9.86
2022-11-10T23:39:09.526Z,10.21
2022-11-10T23:41:55.596Z,9.77
2022-11-10T23:44:41.707Z,9.16
2022-11-10T23:47:27.525Z,9.17
2022-11-10T23:50:13.270Z,9.84
2022-11-10T23:52:59.540Z,9.17
2022-11-10T23:55:45.550Z,9.28
2022-11-10T23:58:31.808Z,9.19
